sensor_id;sensor_type;location;lat;lon;timestamp;P1;durP1;ratioP1;P2;durP2;ratioP2
57718;SDS011;43561;50.090;18.522;2024-01-27T00:06:10;7.03;;;3.38;;
57718;SDS011;43561;50.090;18.522;2024-01-27T00:16:12;6.00;;;3.22;;
57718;SDS011;43561;50.090;18.522;2024-01-27T00:26:14;8.32;;;2.00;;
57718;SDS011;43561;50.090;18.522;2024-01-27T00:36:17;8.48;;;2.42;;
57718;SDS011;43561;50.090;18.522;2024-01-27T00:46:19;8.15;;;3.40;;
57718;SDS011;43561;50.090;18.522;2024-01-27T00:56:21;9.70;;;3.40;;
57718;SDS011;43561;50.090;18.522;2024-01-27T01:06:23;7.30;;;2.67;;
57718;SDS011;43561;50.090;18.522;2024-01-27T01:16:25;2.45;;;1.60;;
57718;SDS011;43561;50.090;18.522;2024-01-27T01:26:27;5.43;;;1.50;;
57718;SDS011;43561;50.090;18.522;2024-01-27T01:36:29;8.82;;;2.50;;
57718;SDS011;43561;50.090;18.522;2024-01-27T01:46:31;8.55;;;2.70;;
57718;SDS011;43561;50.090;18.522;2024-01-27T01:56:33;9.80;;;4.93;;
57718;SDS011;43561;50.090;18.522;2024-01-27T02:06:36;4.30;;;1.55;;
57718;SDS011;43561;50.090;18.522;2024-01-27T02:16:39;8.13;;;2.38;;
57718;SDS011;43561;50.090;18.522;2024-01-27T02:26:41;10.13;;;2.50;;
57718;SDS011;43561;50.090;18.522;2024-01-27T02:36:43;5.32;;;1.45;;
57718;SDS011;43561;50.090;18.522;2024-01-27T02:46:45;27.35;;;3.70;;
57718;SDS011;43561;50.090;18.522;2024-01-27T02:56:47;13.75;;;4.38;;
57718;SDS011;43561;50.090;18.522;2024-01-27T03:06:49;8.00;;;2.63;;
57718;SDS011;43561;50.090;18.522;2024-01-27T03:16:51;2.17;;;1.63;;
57718;SDS011;43561;50.090;18.522;2024-01-27T03:26:53;5.30;;;2.40;;
57718;SDS011;43561;50.090;18.522;2024-01-27T03:36:55;11.98;;;3.15;;
57718;SDS011;43561;50.090;18.522;2024-01-27T03:46:57;10.20;;;3.30;;
57718;SDS011;43561;50.090;18.522;2024-01-27T03:56:59;14.88;;;2.42;;
57718;SDS011;43561;50.090;18.522;2024-01-27T04:07:01;5.07;;;1.95;;
57718;SDS011;43561;50.090;18.522;2024-01-27T04:17:04;8.07;;;2.05;;
57718;SDS011;43561;50.090;18.522;2024-01-27T04:27:05;10.20;;;3.78;;
57718;SDS011;43561;50.090;18.522;2024-01-27T04:37:09;9.27;;;4.38;;
57718;SDS011;43561;50.090;18.522;2024-01-27T04:57:38;5.50;;;1.88;;
57718;SDS011;43561;50.090;18.522;2024-01-27T05:07:40;6.03;;;3.13;;
57718;SDS011;43561;50.090;18.522;2024-01-27T05:17:42;16.45;;;4.18;;
57718;SDS011;43561;50.090;18.522;2024-01-27T05:27:44;10.38;;;3.58;;
57718;SDS011;43561;50.090;18.522;2024-01-27T05:37:46;21.10;;;3.53;;
57718;SDS011;43561;50.090;18.522;2024-01-27T05:47:48;10.73;;;2.88;;
57718;SDS011;43561;50.090;18.522;2024-01-27T05:57:50;7.32;;;2.28;;
57718;SDS011;43561;50.090;18.522;2024-01-27T06:07:52;11.32;;;3.00;;
57718;SDS011;43561;50.090;18.522;2024-01-27T06:17:54;10.32;;;2.72;;
57718;SDS011;43561;50.090;18.522;2024-01-27T06:27:57;6.60;;;3.65;;
57718;SDS011;43561;50.090;18.522;2024-01-27T06:37:59;11.48;;;3.88;;
57718;SDS011;43561;50.090;18.522;2024-01-27T06:48:00;15.73;;;4.05;;
57718;SDS011;43561;50.090;18.522;2024-01-27T06:58:03;15.90;;;3.83;;
57718;SDS011;43561;50.090;18.522;2024-01-27T07:08:06;15.73;;;3.80;;
57718;SDS011;43561;50.090;18.522;2024-01-27T07:18:09;10.52;;;3.95;;
57718;SDS011;43561;50.090;18.522;2024-01-27T07:28:12;7.03;;;3.58;;
57718;SDS011;43561;50.090;18.522;2024-01-27T07:38:14;13.40;;;4.05;;
57718;SDS011;43561;50.090;18.522;2024-01-27T07:48:16;14.85;;;4.72;;
57718;SDS011;43561;50.090;18.522;2024-01-27T07:58:18;13.90;;;5.25;;
57718;SDS011;43561;50.090;18.522;2024-01-27T08:08:20;22.55;;;6.18;;
57718;SDS011;43561;50.090;18.522;2024-01-27T08:18:23;14.68;;;5.07;;
57718;SDS011;43561;50.090;18.522;2024-01-27T08:28:25;13.95;;;4.07;;
57718;SDS011;43561;50.090;18.522;2024-01-27T08:38:27;14.63;;;6.53;;
57718;SDS011;43561;50.090;18.522;2024-01-27T08:48:29;17.77;;;7.82;;
57718;SDS011;43561;50.090;18.522;2024-01-27T08:58:32;33.47;;;14.25;;
57718;SDS011;43561;50.090;18.522;2024-01-27T09:08:36;14.57;;;4.95;;
57718;SDS011;43561;50.090;18.522;2024-01-27T09:18:41;12.25;;;7.07;;
57718;SDS011;43561;50.090;18.522;2024-01-27T09:28:43;5.10;;;4.05;;
57718;SDS011;43561;50.090;18.522;2024-01-27T09:38:46;15.02;;;4.22;;
57718;SDS011;43561;50.090;18.522;2024-01-27T09:48:48;15.32;;;4.57;;
57718;SDS011;43561;50.090;18.522;2024-01-27T09:58:51;14.68;;;5.35;;
57718;SDS011;43561;50.090;18.522;2024-01-27T10:08:53;20.17;;;4.57;;
57718;SDS011;43561;50.090;18.522;2024-01-27T10:19:00;27.95;;;5.70;;
57718;SDS011;43561;50.090;18.522;2024-01-27T10:29:15;20.47;;;7.20;;
57718;SDS011;43561;50.090;18.522;2024-01-27T10:39:17;29.80;;;7.15;;
57718;SDS011;43561;50.090;18.522;2024-01-27T10:49:23;14.65;;;8.00;;
57718;SDS011;43561;50.090;18.522;2024-01-27T10:59:27;27.48;;;7.70;;
57718;SDS011;43561;50.090;18.522;2024-01-27T11:09:29;14.70;;;5.38;;
57718;SDS011;43561;50.090;18.522;2024-01-27T11:19:32;17.50;;;5.35;;
57718;SDS011;43561;50.090;18.522;2024-01-27T11:29:46;23.90;;;5.85;;
57718;SDS011;43561;50.090;18.522;2024-01-27T11:39:48;13.30;;;5.60;;
57718;SDS011;43561;50.090;18.522;2024-01-27T11:49:51;16.60;;;5.07;;
57718;SDS011;43561;50.090;18.522;2024-01-27T11:59:56;20.05;;;5.95;;
57718;SDS011;43561;50.090;18.522;2024-01-27T12:10:24;13.35;;;7.72;;
57718;SDS011;43561;50.090;18.522;2024-01-27T12:20:27;29.85;;;6.28;;
57718;SDS011;43561;50.090;18.522;2024-01-27T12:30:31;17.13;;;5.13;;
57718;SDS011;43561;50.090;18.522;2024-01-27T12:40:35;18.60;;;6.47;;
57718;SDS011;43561;50.090;18.522;2024-01-27T12:50:36;21.73;;;7.30;;
57718;SDS011;43561;50.090;18.522;2024-01-27T13:00:38;15.13;;;5.53;;
57718;SDS011;43561;50.090;18.522;2024-01-27T13:10:40;27.38;;;6.78;;
57718;SDS011;43561;50.090;18.522;2024-01-27T13:20:42;15.40;;;6.10;;
57718;SDS011;43561;50.090;18.522;2024-01-27T13:30:46;15.13;;;4.47;;
57718;SDS011;43561;50.090;18.522;2024-01-27T13:40:48;37.88;;;9.48;;
57718;SDS011;43561;50.090;18.522;2024-01-27T13:50:50;22.13;;;8.52;;
57718;SDS011;43561;50.090;18.522;2024-01-27T14:00:53;18.90;;;6.05;;
57718;SDS011;43561;50.090;18.522;2024-01-27T14:10:55;14.95;;;4.10;;
57718;SDS011;43561;50.090;18.522;2024-01-27T14:21:03;19.08;;;8.27;;
57718;SDS011;43561;50.090;18.522;2024-01-27T14:31:10;19.00;;;6.53;;
57718;SDS011;43561;50.090;18.522;2024-01-27T14:51:24;11.63;;;4.28;;
57718;SDS011;43561;50.090;18.522;2024-01-27T15:01:26;27.60;;;8.90;;
57718;SDS011;43561;50.090;18.522;2024-01-27T15:11:29;31.02;;;8.30;;
57718;SDS011;43561;50.090;18.522;2024-01-27T15:21:31;11.38;;;4.30;;
57718;SDS011;43561;50.090;18.522;2024-01-27T15:31:33;28.75;;;6.07;;
57718;SDS011;43561;50.090;18.522;2024-01-27T15:41:35;8.48;;;3.58;;
57718;SDS011;43561;50.090;18.522;2024-01-27T15:51:41;27.70;;;6.18;;
57718;SDS011;43561;50.090;18.522;2024-01-27T16:01:43;9.05;;;5.38;;
57718;SDS011;43561;50.090;18.522;2024-01-27T16:22:49;28.60;;;7.18;;
57718;SDS011;43561;50.090;18.522;2024-01-27T16:32:54;11.80;;;3.28;;
57718;SDS011;43561;50.090;18.522;2024-01-27T16:43:16;15.25;;;3.80;;
57718;SDS011;43561;50.090;18.522;2024-01-27T16:53:18;21.73;;;4.97;;
57718;SDS011;43561;50.090;18.522;2024-01-27T17:03:20;53.95;;;10.07;;
57718;SDS011;43561;50.090;18.522;2024-01-27T17:13:22;20.00;;;5.03;;
57718;SDS011;43561;50.090;18.522;2024-01-27T17:23:25;27.23;;;8.73;;
57718;SDS011;43561;50.090;18.522;2024-01-27T17:33:27;22.00;;;9.45;;
57718;SDS011;43561;50.090;18.522;2024-01-27T17:43:29;22.05;;;8.13;;
57718;SDS011;43561;50.090;18.522;2024-01-27T17:53:31;34.63;;;10.85;;
57718;SDS011;43561;50.090;18.522;2024-01-27T18:03:33;32.28;;;10.25;;
57718;SDS011;43561;50.090;18.522;2024-01-27T18:13:40;28.02;;;8.05;;
57718;SDS011;43561;50.090;18.522;2024-01-27T18:23:42;15.07;;;6.60;;
57718;SDS011;43561;50.090;18.522;2024-01-27T18:33:45;20.02;;;6.70;;
57718;SDS011;43561;50.090;18.522;2024-01-27T18:44:03;28.57;;;9.87;;
57718;SDS011;43561;50.090;18.522;2024-01-27T18:54:08;23.58;;;9.18;;
57718;SDS011;43561;50.090;18.522;2024-01-27T19:14:41;36.13;;;11.40;;
57718;SDS011;43561;50.090;18.522;2024-01-27T19:24:52;25.13;;;6.30;;
57718;SDS011;43561;50.090;18.522;2024-01-27T19:34:53;24.55;;;8.65;;
57718;SDS011;43561;50.090;18.522;2024-01-27T19:44:56;34.22;;;12.55;;
57718;SDS011;43561;50.090;18.522;2024-01-27T19:54:57;27.40;;;9.07;;
57718;SDS011;43561;50.090;18.522;2024-01-27T20:05:03;25.17;;;8.38;;
57718;SDS011;43561;50.090;18.522;2024-01-27T20:15:05;35.05;;;11.02;;
57718;SDS011;43561;50.090;18.522;2024-01-27T20:25:08;35.28;;;11.07;;
57718;SDS011;43561;50.090;18.522;2024-01-27T20:35:15;24.70;;;9.00;;
57718;SDS011;43561;50.090;18.522;2024-01-27T20:45:17;24.33;;;9.20;;
57718;SDS011;43561;50.090;18.522;2024-01-27T20:55:20;21.98;;;10.85;;
57718;SDS011;43561;50.090;18.522;2024-01-27T21:05:22;46.00;;;16.02;;
57718;SDS011;43561;50.090;18.522;2024-01-27T21:15:24;35.67;;;13.90;;
57718;SDS011;43561;50.090;18.522;2024-01-27T21:25:27;51.25;;;14.50;;
57718;SDS011;43561;50.090;18.522;2024-01-27T21:35:29;24.05;;;11.68;;
57718;SDS011;43561;50.090;18.522;2024-01-27T21:45:31;23.92;;;11.25;;
57718;SDS011;43561;50.090;18.522;2024-01-27T21:55:34;30.77;;;10.90;;
57718;SDS011;43561;50.090;18.522;2024-01-27T22:05:36;28.08;;;13.88;;
57718;SDS011;43561;50.090;18.522;2024-01-27T22:15:38;40.83;;;18.17;;
57718;SDS011;43561;50.090;18.522;2024-01-27T22:25:42;49.67;;;18.00;;
57718;SDS011;43561;50.090;18.522;2024-01-27T22:35:45;44.00;;;22.02;;
57718;SDS011;43561;50.090;18.522;2024-01-27T22:45:47;53.45;;;22.27;;
57718;SDS011;43561;50.090;18.522;2024-01-27T22:55:52;53.88;;;24.38;;
57718;SDS011;43561;50.090;18.522;2024-01-27T23:05:55;65.15;;;19.85;;
57718;SDS011;43561;50.090;18.522;2024-01-27T23:15:58;48.75;;;14.63;;
57718;SDS011;43561;50.090;18.522;2024-01-27T23:26:01;51.17;;;14.77;;
57718;SDS011;43561;50.090;18.522;2024-01-27T23:36:03;62.55;;;18.73;;
57718;SDS011;43561;50.090;18.522;2024-01-27T23:46:05;59.00;;;18.75;;
57718;SDS011;43561;50.090;18.522;2024-01-27T23:56:08;38.35;;;14.10;;
